sensor_id;sensor_type;location;lat;lon;timestamp;temperature;humidity
16074;DHT22;8141;52.664;5.074;2023-07-24T00:02:25;25.40;59.30
16074;DHT22;8141;52.664;5.074;2023-07-24T00:04:50;25.40;59.30
16074;DHT22;8141;52.664;5.074;2023-07-24T00:07:16;25.40;59.30
16074;DHT22;8141;52.664;5.074;2023-07-24T00:09:42;25.40;59.40
16074;DHT22;8141;52.664;5.074;2023-07-24T00:12:08;25.40;59.30
16074;DHT22;8141;52.664;5.074;2023-07-24T00:14:34;25.50;59.30
16074;DHT22;8141;52.664;5.074;2023-07-24T00:16:59;25.40;59.10
16074;DHT22;8141;52.664;5.074;2023-07-24T00:19:25;25.50;59.20
16074;DHT22;8141;52.664;5.074;2023-07-24T00:21:51;25.50;59.20
16074;DHT22;8141;52.664;5.074;2023-07-24T00:24:16;25.40;59.10
16074;DHT22;8141;52.664;5.074;2023-07-24T00:26:42;25.40;59.10
16074;DHT22;8141;52.664;5.074;2023-07-24T00:29:08;25.40;59.50
16074;DHT22;8141;52.664;5.074;2023-07-24T00:31:33;25.50;59.30
16074;DHT22;8141;52.664;5.074;2023-07-24T00:33:59;25.40;59.10
16074;DHT22;8141;52.664;5.074;2023-07-24T00:36:26;25.50;59.20
16074;DHT22;8141;52.664;5.074;2023-07-24T00:38:52;25.50;59.20
16074;DHT22;8141;52.664;5.074;2023-07-24T00:41:17;25.40;59.10
16074;DHT22;8141;52.664;5.074;2023-07-24T00:43:43;25.40;59.30
16074;DHT22;8141;52.664;5.074;2023-07-24T00:46:10;25.40;59.40
16074;DHT22;8141;52.664;5.074;2023-07-24T00:48:37;25.50;59.30
16074;DHT22;8141;52.664;5.074;2023-07-24T00:51:03;25.40;59.40
16074;DHT22;8141;52.664;5.074;2023-07-24T00:53:29;25.50;59.40
16074;DHT22;8141;52.664;5.074;2023-07-24T00:55:55;25.40;59.40
16074;DHT22;8141;52.664;5.074;2023-07-24T00:58:21;25.50;59.50
16074;DHT22;8141;52.664;5.074;2023-07-24T01:00:47;25.50;59.50
16074;DHT22;8141;52.664;5.074;2023-07-24T01:03:14;25.50;59.60
16074;DHT22;8141;52.664;5.074;2023-07-24T01:05:39;25.50;59.60
16074;DHT22;8141;52.664;5.074;2023-07-24T01:08:06;25.50;59.60
16074;DHT22;8141;52.664;5.074;2023-07-24T01:10:32;25.50;59.60
16074;DHT22;8141;52.664;5.074;2023-07-24T01:15:37;25.50;59.60
16074;DHT22;8141;52.664;5.074;2023-07-24T01:18:09;25.40;59.60
16074;DHT22;8141;52.664;5.074;2023-07-24T01:20:41;25.40;59.50
16074;DHT22;8141;52.664;5.074;2023-07-24T01:26:00;25.40;59.40
16074;DHT22;8141;52.664;5.074;2023-07-24T01:28:28;25.40;59.60
16074;DHT22;8141;52.664;5.074;2023-07-24T01:30:55;25.50;59.50
16074;DHT22;8141;52.664;5.074;2023-07-24T01:33:22;25.40;59.50
16074;DHT22;8141;52.664;5.074;2023-07-24T01:35:49;25.40;59.70
16074;DHT22;8141;52.664;5.074;2023-07-24T01:38:19;25.50;59.60
16074;DHT22;8141;52.664;5.074;2023-07-24T01:40:45;25.50;59.90
16074;DHT22;8141;52.664;5.074;2023-07-24T01:43:11;25.50;59.90
16074;DHT22;8141;52.664;5.074;2023-07-24T01:45:37;25.40;59.80
16074;DHT22;8141;52.664;5.074;2023-07-24T01:48:06;25.40;59.70
16074;DHT22;8141;52.664;5.074;2023-07-24T01:50:32;25.40;59.80
16074;DHT22;8141;52.664;5.074;2023-07-24T01:52:58;25.50;59.70
16074;DHT22;8141;52.664;5.074;2023-07-24T01:55:23;25.40;59.70
16074;DHT22;8141;52.664;5.074;2023-07-24T01:57:49;25.50;59.60
16074;DHT22;8141;52.664;5.074;2023-07-24T02:00:15;25.50;59.60
16074;DHT22;8141;52.664;5.074;2023-07-24T02:02:41;25.50;59.60
16074;DHT22;8141;52.664;5.074;2023-07-24T02:05:07;25.40;59.60
16074;DHT22;8141;52.664;5.074;2023-07-24T02:07:33;25.40;59.60
16074;DHT22;8141;52.664;5.074;2023-07-24T02:09:59;25.40;59.70
16074;DHT22;8141;52.664;5.074;2023-07-24T02:12:24;25.50;59.80
16074;DHT22;8141;52.664;5.074;2023-07-24T02:14:50;25.50;59.70
16074;DHT22;8141;52.664;5.074;2023-07-24T02:17:18;25.50;59.60
16074;DHT22;8141;52.664;5.074;2023-07-24T02:19:44;25.50;59.80
16074;DHT22;8141;52.664;5.074;2023-07-24T02:22:10;25.40;59.60
16074;DHT22;8141;52.664;5.074;2023-07-24T02:24:36;25.40;59.80
16074;DHT22;8141;52.664;5.074;2023-07-24T02:27:02;25.50;59.80
16074;DHT22;8141;52.664;5.074;2023-07-24T02:29:28;25.40;59.80
16074;DHT22;8141;52.664;5.074;2023-07-24T02:31:54;25.50;60.10
16074;DHT22;8141;52.664;5.074;2023-07-24T02:34:20;25.50;60.30
16074;DHT22;8141;52.664;5.074;2023-07-24T02:36:52;25.50;60.00
16074;DHT22;8141;52.664;5.074;2023-07-24T02:39:18;25.50;59.90
16074;DHT22;8141;52.664;5.074;2023-07-24T02:41:45;25.50;59.90
16074;DHT22;8141;52.664;5.074;2023-07-24T02:44:11;25.50;60.00
16074;DHT22;8141;52.664;5.074;2023-07-24T02:46:37;25.50;59.80
16074;DHT22;8141;52.664;5.074;2023-07-24T02:49:03;25.50;59.80
16074;DHT22;8141;52.664;5.074;2023-07-24T02:51:28;25.50;59.80
16074;DHT22;8141;52.664;5.074;2023-07-24T02:53:54;25.50;59.90
16074;DHT22;8141;52.664;5.074;2023-07-24T02:56:20;25.50;60.00
16074;DHT22;8141;52.664;5.074;2023-07-24T02:58:46;25.50;59.90
16074;DHT22;8141;52.664;5.074;2023-07-24T03:01:12;25.50;59.90
16074;DHT22;8141;52.664;5.074;2023-07-24T03:03:40;25.50;59.80
16074;DHT22;8141;52.664;5.074;2023-07-24T03:06:06;25.50;59.90
16074;DHT22;8141;52.664;5.074;2023-07-24T03:08:32;25.50;60.10
16074;DHT22;8141;52.664;5.074;2023-07-24T03:10:59;25.50;59.90
16074;DHT22;8141;52.664;5.074;2023-07-24T03:13:25;25.50;59.90
16074;DHT22;8141;52.664;5.074;2023-07-24T03:15:55;25.50;59.90
16074;DHT22;8141;52.664;5.074;2023-07-24T03:18:22;25.50;60.10
16074;DHT22;8141;52.664;5.074;2023-07-24T03:20:48;25.50;59.90
16074;DHT22;8141;52.664;5.074;2023-07-24T03:23:14;25.50;59.90
16074;DHT22;8141;52.664;5.074;2023-07-24T03:25:40;25.50;60.10
16074;DHT22;8141;52.664;5.074;2023-07-24T03:28:06;25.50;60.00
16074;DHT22;8141;52.664;5.074;2023-07-24T03:30:32;25.50;60.10
16074;DHT22;8141;52.664;5.074;2023-07-24T03:32:58;25.40;60.00
16074;DHT22;8141;52.664;5.074;2023-07-24T03:35:24;25.50;59.80
16074;DHT22;8141;52.664;5.074;2023-07-24T03:37:49;25.50;59.90
16074;DHT22;8141;52.664;5.074;2023-07-24T03:40:15;25.50;59.90
16074;DHT22;8141;52.664;5.074;2023-07-24T03:42:41;25.40;59.80
16074;DHT22;8141;52.664;5.074;2023-07-24T03:45:07;25.50;59.80
16074;DHT22;8141;52.664;5.074;2023-07-24T03:47:33;25.50;59.80
16074;DHT22;8141;52.664;5.074;2023-07-24T03:49:59;25.50;59.80
16074;DHT22;8141;52.664;5.074;2023-07-24T03:52:25;25.50;59.80
16074;DHT22;8141;52.664;5.074;2023-07-24T03:54:54;25.50;59.80
16074;DHT22;8141;52.664;5.074;2023-07-24T03:57:19;25.50;59.70
16074;DHT22;8141;52.664;5.074;2023-07-24T03:59:45;25.50;59.80
16074;DHT22;8141;52.664;5.074;2023-07-24T04:02:11;25.40;59.80
16074;DHT22;8141;52.664;5.074;2023-07-24T04:04:37;25.50;59.70
16074;DHT22;8141;52.664;5.074;2023-07-24T04:07:04;25.50;59.90
16074;DHT22;8141;52.664;5.074;2023-07-24T04:09:30;25.50;60.00
16074;DHT22;8141;52.664;5.074;2023-07-24T04:11:55;25.50;60.00
16074;DHT22;8141;52.664;5.074;2023-07-24T04:14:21;25.50;60.20
16074;DHT22;8141;52.664;5.074;2023-07-24T04:16:47;25.50;60.40
16074;DHT22;8141;52.664;5.074;2023-07-24T04:19:13;25.50;60.30
16074;DHT22;8141;52.664;5.074;2023-07-24T04:21:38;25.50;60.40
16074;DHT22;8141;52.664;5.074;2023-07-24T04:24:04;25.50;60.30
16074;DHT22;8141;52.664;5.074;2023-07-24T04:26:30;25.50;60.30
16074;DHT22;8141;52.664;5.074;2023-07-24T04:28:56;25.50;60.20
16074;DHT22;8141;52.664;5.074;2023-07-24T04:31:21;25.50;60.10
16074;DHT22;8141;52.664;5.074;2023-07-24T04:33:47;25.50;60.10
16074;DHT22;8141;52.664;5.074;2023-07-24T04:36:13;25.50;60.10
16074;DHT22;8141;52.664;5.074;2023-07-24T04:38:39;25.40;60.10
16074;DHT22;8141;52.664;5.074;2023-07-24T04:41:04;25.50;60.10
16074;DHT22;8141;52.664;5.074;2023-07-24T04:43:30;25.50;60.00
16074;DHT22;8141;52.664;5.074;2023-07-24T04:45:56;25.50;60.10
16074;DHT22;8141;52.664;5.074;2023-07-24T04:48:22;25.50;60.00
16074;DHT22;8141;52.664;5.074;2023-07-24T04:50:53;25.50;59.90
16074;DHT22;8141;52.664;5.074;2023-07-24T04:53:20;25.50;59.90
16074;DHT22;8141;52.664;5.074;2023-07-24T04:55:47;25.50;59.90
16074;DHT22;8141;52.664;5.074;2023-07-24T04:58:12;25.50;59.90
16074;DHT22;8141;52.664;5.074;2023-07-24T05:00:38;25.50;60.10
16074;DHT22;8141;52.664;5.074;2023-07-24T05:03:04;25.40;59.80
16074;DHT22;8141;52.664;5.074;2023-07-24T05:05:31;25.50;60.20
16074;DHT22;8141;52.664;5.074;2023-07-24T05:07:57;25.50;60.50
16074;DHT22;8141;52.664;5.074;2023-07-24T05:10:23;25.50;60.40
16074;DHT22;8141;52.664;5.074;2023-07-24T05:12:49;25.50;60.30
16074;DHT22;8141;52.664;5.074;2023-07-24T05:15:14;25.50;60.10
16074;DHT22;8141;52.664;5.074;2023-07-24T05:17:43;25.50;60.10
16074;DHT22;8141;52.664;5.074;2023-07-24T05:20:09;25.50;60.10
16074;DHT22;8141;52.664;5.074;2023-07-24T05:22:35;25.50;60.20
16074;DHT22;8141;52.664;5.074;2023-07-24T05:25:01;25.50;60.20
16074;DHT22;8141;52.664;5.074;2023-07-24T05:27:27;25.50;60.40
16074;DHT22;8141;52.664;5.074;2023-07-24T05:29:52;25.50;60.30
16074;DHT22;8141;52.664;5.074;2023-07-24T05:32:18;25.50;60.40
16074;DHT22;8141;52.664;5.074;2023-07-24T05:34:44;25.50;60.30
16074;DHT22;8141;52.664;5.074;2023-07-24T05:37:09;25.50;60.20
16074;DHT22;8141;52.664;5.074;2023-07-24T05:39:35;25.50;60.30
16074;DHT22;8141;52.664;5.074;2023-07-24T05:42:01;25.50;60.40
16074;DHT22;8141;52.664;5.074;2023-07-24T05:44:27;25.50;60.50
16074;DHT22;8141;52.664;5.074;2023-07-24T05:46:53;25.50;60.50
16074;DHT22;8141;52.664;5.074;2023-07-24T05:49:19;25.40;60.40
16074;DHT22;8141;52.664;5.074;2023-07-24T05:51:44;25.40;60.40
16074;DHT22;8141;52.664;5.074;2023-07-24T05:54:10;25.40;60.40
16074;DHT22;8141;52.664;5.074;2023-07-24T05:56:36;25.40;60.40
16074;DHT22;8141;52.664;5.074;2023-07-24T05:59:01;25.40;60.40
16074;DHT22;8141;52.664;5.074;2023-07-24T06:01:27;25.30;60.50
16074;DHT22;8141;52.664;5.074;2023-07-24T06:03:53;25.30;60.40
16074;DHT22;8141;52.664;5.074;2023-07-24T06:06:19;25.30;60.40
16074;DHT22;8141;52.664;5.074;2023-07-24T06:08:44;25.30;60.50
16074;DHT22;8141;52.664;5.074;2023-07-24T06:11:12;25.30;60.60
16074;DHT22;8141;52.664;5.074;2023-07-24T06:13:38;25.30;60.50
16074;DHT22;8141;52.664;5.074;2023-07-24T06:16:04;25.30;60.60
16074;DHT22;8141;52.664;5.074;2023-07-24T06:18:29;25.30;60.50
16074;DHT22;8141;52.664;5.074;2023-07-24T06:20:55;25.30;60.50
16074;DHT22;8141;52.664;5.074;2023-07-24T06:23:21;25.30;60.40
16074;DHT22;8141;52.664;5.074;2023-07-24T06:25:47;25.20;60.50
16074;DHT22;8141;52.664;5.074;2023-07-24T06:28:12;25.20;60.60
16074;DHT22;8141;52.664;5.074;2023-07-24T06:30:39;25.20;60.70
16074;DHT22;8141;52.664;5.074;2023-07-24T06:33:04;25.20;60.70
16074;DHT22;8141;52.664;5.074;2023-07-24T06:35:30;25.20;60.60
16074;DHT22;8141;52.664;5.074;2023-07-24T06:37:56;25.20;60.60
16074;DHT22;8141;52.664;5.074;2023-07-24T06:40:22;25.20;60.60
16074;DHT22;8141;52.664;5.074;2023-07-24T06:42:48;25.20;60.70
16074;DHT22;8141;52.664;5.074;2023-07-24T06:45:13;25.20;60.60
16074;DHT22;8141;52.664;5.074;2023-07-24T06:47:39;25.20;60.50
16074;DHT22;8141;52.664;5.074;2023-07-24T06:50:05;25.10;60.50
16074;DHT22;8141;52.664;5.074;2023-07-24T06:52:32;25.10;60.60
16074;DHT22;8141;52.664;5.074;2023-07-24T06:54:58;25.10;60.50
16074;DHT22;8141;52.664;5.074;2023-07-24T06:57:24;25.10;60.40
16074;DHT22;8141;52.664;5.074;2023-07-24T06:59:50;25.10;60.40
16074;DHT22;8141;52.664;5.074;2023-07-24T07:02:16;25.10;60.30
16074;DHT22;8141;52.664;5.074;2023-07-24T07:04:42;25.10;60.50
16074;DHT22;8141;52.664;5.074;2023-07-24T07:07:08;25.10;60.40
16074;DHT22;8141;52.664;5.074;2023-07-24T07:09:34;25.10;60.30
16074;DHT22;8141;52.664;5.074;2023-07-24T07:11:59;25.10;60.50
16074;DHT22;8141;52.664;5.074;2023-07-24T07:14:25;25.10;60.60
16074;DHT22;8141;52.664;5.074;2023-07-24T07:16:51;25.10;60.50
16074;DHT22;8141;52.664;5.074;2023-07-24T07:19:16;25.10;60.50
16074;DHT22;8141;52.664;5.074;2023-07-24T07:21:42;25.10;60.50
16074;DHT22;8141;52.664;5.074;2023-07-24T07:24:08;25.00;60.30
16074;DHT22;8141;52.664;5.074;2023-07-24T07:26:34;25.00;60.40
16074;DHT22;8141;52.664;5.074;2023-07-24T07:29:00;25.10;60.50
16074;DHT22;8141;52.664;5.074;2023-07-24T07:31:25;25.10;60.60
16074;DHT22;8141;52.664;5.074;2023-07-24T07:33:51;25.00;60.60
16074;DHT22;8141;52.664;5.074;2023-07-24T07:36:17;25.00;60.60
16074;DHT22;8141;52.664;5.074;2023-07-24T07:38:48;25.00;60.50
16074;DHT22;8141;52.664;5.074;2023-07-24T07:41:13;25.00;60.70
16074;DHT22;8141;52.664;5.074;2023-07-24T07:43:39;25.00;60.50
16074;DHT22;8141;52.664;5.074;2023-07-24T07:46:05;25.00;60.30
16074;DHT22;8141;52.664;5.074;2023-07-24T07:48:31;25.00;60.40
16074;DHT22;8141;52.664;5.074;2023-07-24T07:50:58;25.00;60.30
16074;DHT22;8141;52.664;5.074;2023-07-24T07:53:23;25.00;60.20
16074;DHT22;8141;52.664;5.074;2023-07-24T07:56:00;25.00;60.30
16074;DHT22;8141;52.664;5.074;2023-07-24T07:58:26;25.00;60.30
16074;DHT22;8141;52.664;5.074;2023-07-24T08:00:51;25.00;60.10
16074;DHT22;8141;52.664;5.074;2023-07-24T08:03:17;25.00;60.10
16074;DHT22;8141;52.664;5.074;2023-07-24T08:05:43;25.00;60.10
16074;DHT22;8141;52.664;5.074;2023-07-24T08:08:09;25.00;60.00
16074;DHT22;8141;52.664;5.074;2023-07-24T08:10:37;25.00;60.20
16074;DHT22;8141;52.664;5.074;2023-07-24T08:13:03;25.00;60.00
16074;DHT22;8141;52.664;5.074;2023-07-24T08:15:34;25.00;60.00
16074;DHT22;8141;52.664;5.074;2023-07-24T08:18:00;25.00;59.90
16074;DHT22;8141;52.664;5.074;2023-07-24T08:20:26;25.00;59.90
16074;DHT22;8141;52.664;5.074;2023-07-24T08:22:52;25.00;59.80
16074;DHT22;8141;52.664;5.074;2023-07-24T08:25:17;25.00;59.80
16074;DHT22;8141;52.664;5.074;2023-07-24T08:27:43;25.00;59.80
16074;DHT22;8141;52.664;5.074;2023-07-24T08:30:09;25.00;59.80
16074;DHT22;8141;52.664;5.074;2023-07-24T08:32:35;25.00;59.80
16074;DHT22;8141;52.664;5.074;2023-07-24T08:35:01;25.00;60.00
16074;DHT22;8141;52.664;5.074;2023-07-24T08:37:27;25.10;59.80
16074;DHT22;8141;52.664;5.074;2023-07-24T08:39:53;25.00;59.70
16074;DHT22;8141;52.664;5.074;2023-07-24T08:42:18;25.00;59.70
16074;DHT22;8141;52.664;5.074;2023-07-24T08:44:45;25.00;59.70
16074;DHT22;8141;52.664;5.074;2023-07-24T08:47:11;25.00;59.60
16074;DHT22;8141;52.664;5.074;2023-07-24T08:49:39;25.00;59.60
16074;DHT22;8141;52.664;5.074;2023-07-24T08:52:08;25.10;59.60
16074;DHT22;8141;52.664;5.074;2023-07-24T08:54:38;25.00;59.50
16074;DHT22;8141;52.664;5.074;2023-07-24T08:57:07;25.00;59.50
16074;DHT22;8141;52.664;5.074;2023-07-24T08:59:34;25.10;59.50
16074;DHT22;8141;52.664;5.074;2023-07-24T09:02:00;25.10;59.50
16074;DHT22;8141;52.664;5.074;2023-07-24T09:04:26;25.00;59.40
16074;DHT22;8141;52.664;5.074;2023-07-24T09:06:51;25.10;59.50
16074;DHT22;8141;52.664;5.074;2023-07-24T09:09:18;25.10;59.40
16074;DHT22;8141;52.664;5.074;2023-07-24T09:11:49;25.10;59.40
16074;DHT22;8141;52.664;5.074;2023-07-24T09:14:22;25.10;59.40
16074;DHT22;8141;52.664;5.074;2023-07-24T09:17:09;25.10;59.40
16074;DHT22;8141;52.664;5.074;2023-07-24T09:19:36;25.10;59.40
16074;DHT22;8141;52.664;5.074;2023-07-24T09:22:14;25.00;59.30
16074;DHT22;8141;52.664;5.074;2023-07-24T09:24:54;25.10;59.40
16074;DHT22;8141;52.664;5.074;2023-07-24T09:27:25;25.10;59.40
16074;DHT22;8141;52.664;5.074;2023-07-24T09:29:52;25.10;59.30
16074;DHT22;8141;52.664;5.074;2023-07-24T09:32:20;25.10;59.30
16074;DHT22;8141;52.664;5.074;2023-07-24T09:34:47;25.10;59.40
16074;DHT22;8141;52.664;5.074;2023-07-24T09:37:42;25.10;59.40
16074;DHT22;8141;52.664;5.074;2023-07-24T09:40:09;25.10;59.50
16074;DHT22;8141;52.664;5.074;2023-07-24T09:42:37;25.10;59.60
16074;DHT22;8141;52.664;5.074;2023-07-24T09:45:04;25.10;59.40
16074;DHT22;8141;52.664;5.074;2023-07-24T09:47:31;25.10;59.40
16074;DHT22;8141;52.664;5.074;2023-07-24T09:49:56;25.10;59.40
16074;DHT22;8141;52.664;5.074;2023-07-24T09:52:24;25.10;59.40
16074;DHT22;8141;52.664;5.074;2023-07-24T09:57:38;25.10;59.40
16074;DHT22;8141;52.664;5.074;2023-07-24T10:00:05;25.10;59.50
16074;DHT22;8141;52.664;5.074;2023-07-24T10:02:33;25.10;59.40
16074;DHT22;8141;52.664;5.074;2023-07-24T10:04:59;25.10;59.50
16074;DHT22;8141;52.664;5.074;2023-07-24T10:07:26;25.10;59.50
16074;DHT22;8141;52.664;5.074;2023-07-24T10:09:52;25.10;59.40
16074;DHT22;8141;52.664;5.074;2023-07-24T10:12:19;25.10;59.40
16074;DHT22;8141;52.664;5.074;2023-07-24T10:14:48;25.10;59.40
16074;DHT22;8141;52.664;5.074;2023-07-24T10:17:14;25.10;59.50
16074;DHT22;8141;52.664;5.074;2023-07-24T10:20:05;25.10;59.50
16074;DHT22;8141;52.664;5.074;2023-07-24T10:22:33;25.20;59.50
16074;DHT22;8141;52.664;5.074;2023-07-24T10:24:59;25.20;59.50
16074;DHT22;8141;52.664;5.074;2023-07-24T10:27:25;25.20;59.50
16074;DHT22;8141;52.664;5.074;2023-07-24T10:30:01;25.10;59.40
16074;DHT22;8141;52.664;5.074;2023-07-24T10:32:30;25.20;59.50
16074;DHT22;8141;52.664;5.074;2023-07-24T10:35:08;25.10;59.40
16074;DHT22;8141;52.664;5.074;2023-07-24T10:37:35;25.10;59.40
16074;DHT22;8141;52.664;5.074;2023-07-24T10:40:03;25.20;59.40
16074;DHT22;8141;52.664;5.074;2023-07-24T10:42:30;25.20;59.40
16074;DHT22;8141;52.664;5.074;2023-07-24T10:45:08;25.20;59.40
16074;DHT22;8141;52.664;5.074;2023-07-24T10:47:36;25.10;59.30
16074;DHT22;8141;52.664;5.074;2023-07-24T10:50:02;25.20;59.40
16074;DHT22;8141;52.664;5.074;2023-07-24T10:52:30;25.20;59.40
16074;DHT22;8141;52.664;5.074;2023-07-24T10:54:56;25.20;59.50
16074;DHT22;8141;52.664;5.074;2023-07-24T10:57:26;25.10;59.40
16074;DHT22;8141;52.664;5.074;2023-07-24T10:59:52;25.20;59.40
16074;DHT22;8141;52.664;5.074;2023-07-24T11:02:18;25.20;59.40
16074;DHT22;8141;52.664;5.074;2023-07-24T11:04:44;25.20;59.40
16074;DHT22;8141;52.664;5.074;2023-07-24T11:07:11;25.20;59.40
16074;DHT22;8141;52.664;5.074;2023-07-24T11:09:37;25.20;59.40
16074;DHT22;8141;52.664;5.074;2023-07-24T11:12:15;25.20;59.40
16074;DHT22;8141;52.664;5.074;2023-07-24T11:14:52;25.20;59.40
16074;DHT22;8141;52.664;5.074;2023-07-24T11:17:21;25.20;59.40
16074;DHT22;8141;52.664;5.074;2023-07-24T11:19:47;25.20;59.40
16074;DHT22;8141;52.664;5.074;2023-07-24T11:22:13;25.20;59.40
16074;DHT22;8141;52.664;5.074;2023-07-24T11:24:46;25.20;59.40
16074;DHT22;8141;52.664;5.074;2023-07-24T11:27:16;25.20;59.40
16074;DHT22;8141;52.664;5.074;2023-07-24T11:29:51;25.20;59.40
16074;DHT22;8141;52.664;5.074;2023-07-24T11:32:20;25.20;59.30
16074;DHT22;8141;52.664;5.074;2023-07-24T11:34:50;25.20;59.30
16074;DHT22;8141;52.664;5.074;2023-07-24T11:37:17;25.20;59.30
16074;DHT22;8141;52.664;5.074;2023-07-24T11:39:59;25.20;59.20
16074;DHT22;8141;52.664;5.074;2023-07-24T11:42:33;25.20;59.20
16074;DHT22;8141;52.664;5.074;2023-07-24T11:45:01;25.20;59.20
16074;DHT22;8141;52.664;5.074;2023-07-24T11:47:28;25.20;59.10
16074;DHT22;8141;52.664;5.074;2023-07-24T11:50:02;25.20;59.20
16074;DHT22;8141;52.664;5.074;2023-07-24T11:52:38;25.20;59.10
16074;DHT22;8141;52.664;5.074;2023-07-24T11:55:12;25.20;59.20
16074;DHT22;8141;52.664;5.074;2023-07-24T11:57:40;25.20;59.20
16074;DHT22;8141;52.664;5.074;2023-07-24T12:00:17;25.20;59.20
16074;DHT22;8141;52.664;5.074;2023-07-24T12:02:46;25.20;59.10
16074;DHT22;8141;52.664;5.074;2023-07-24T12:05:12;25.20;59.10
16074;DHT22;8141;52.664;5.074;2023-07-24T12:07:38;25.20;59.10
16074;DHT22;8141;52.664;5.074;2023-07-24T12:10:05;25.20;59.50
16074;DHT22;8141;52.664;5.074;2023-07-24T12:12:46;25.30;59.60
16074;DHT22;8141;52.664;5.074;2023-07-24T12:15:13;25.20;59.50
16074;DHT22;8141;52.664;5.074;2023-07-24T12:17:40;25.30;59.80
16074;DHT22;8141;52.664;5.074;2023-07-24T12:20:08;25.20;59.80
16074;DHT22;8141;52.664;5.074;2023-07-24T12:22:38;25.20;59.60
16074;DHT22;8141;52.664;5.074;2023-07-24T12:25:05;25.30;59.50
16074;DHT22;8141;52.664;5.074;2023-07-24T12:27:32;25.30;59.50
16074;DHT22;8141;52.664;5.074;2023-07-24T12:29:58;25.20;59.40
16074;DHT22;8141;52.664;5.074;2023-07-24T12:32:25;25.30;59.50
16074;DHT22;8141;52.664;5.074;2023-07-24T12:34:51;25.20;59.40
16074;DHT22;8141;52.664;5.074;2023-07-24T12:37:18;25.30;59.50
16074;DHT22;8141;52.664;5.074;2023-07-24T12:39:45;25.20;59.30
16074;DHT22;8141;52.664;5.074;2023-07-24T12:42:12;25.30;59.50
16074;DHT22;8141;52.664;5.074;2023-07-24T12:44:38;25.30;59.50
16074;DHT22;8141;52.664;5.074;2023-07-24T12:47:04;25.30;59.50
16074;DHT22;8141;52.664;5.074;2023-07-24T12:49:31;25.20;59.40
16074;DHT22;8141;52.664;5.074;2023-07-24T12:51:57;25.30;59.40
16074;DHT22;8141;52.664;5.074;2023-07-24T12:54:23;25.30;59.30
16074;DHT22;8141;52.664;5.074;2023-07-24T12:56:49;25.20;59.20
16074;DHT22;8141;52.664;5.074;2023-07-24T12:59:16;25.30;59.30
16074;DHT22;8141;52.664;5.074;2023-07-24T13:01:42;25.30;59.30
16074;DHT22;8141;52.664;5.074;2023-07-24T13:04:08;25.30;59.30
16074;DHT22;8141;52.664;5.074;2023-07-24T13:06:34;25.20;59.30
16074;DHT22;8141;52.664;5.074;2023-07-24T13:09:00;25.30;59.40
16074;DHT22;8141;52.664;5.074;2023-07-24T13:11:25;25.30;59.40
16074;DHT22;8141;52.664;5.074;2023-07-24T13:13:53;25.30;59.40
16074;DHT22;8141;52.664;5.074;2023-07-24T13:16:20;25.20;59.70
16074;DHT22;8141;52.664;5.074;2023-07-24T13:18:45;25.30;59.60
16074;DHT22;8141;52.664;5.074;2023-07-24T13:21:11;25.30;59.60
16074;DHT22;8141;52.664;5.074;2023-07-24T13:23:37;25.30;60.10
16074;DHT22;8141;52.664;5.074;2023-07-24T13:26:03;25.30;60.20
16074;DHT22;8141;52.664;5.074;2023-07-24T13:28:28;25.30;60.30
16074;DHT22;8141;52.664;5.074;2023-07-24T13:30:55;25.30;60.20
16074;DHT22;8141;52.664;5.074;2023-07-24T13:33:21;25.30;60.20
16074;DHT22;8141;52.664;5.074;2023-07-24T13:35:48;25.40;60.20
16074;DHT22;8141;52.664;5.074;2023-07-24T13:38:16;25.30;60.10
16074;DHT22;8141;52.664;5.074;2023-07-24T13:40:41;25.40;60.00
16074;DHT22;8141;52.664;5.074;2023-07-24T13:43:07;25.40;60.00
16074;DHT22;8141;52.664;5.074;2023-07-24T13:45:33;25.40;59.80
16074;DHT22;8141;52.664;5.074;2023-07-24T13:47:59;25.40;59.80
16074;DHT22;8141;52.664;5.074;2023-07-24T13:50:25;25.50;59.80
16074;DHT22;8141;52.664;5.074;2023-07-24T13:52:50;25.50;59.70
16074;DHT22;8141;52.664;5.074;2023-07-24T13:55:16;25.50;59.60
16074;DHT22;8141;52.664;5.074;2023-07-24T13:57:42;25.50;59.60
16074;DHT22;8141;52.664;5.074;2023-07-24T14:00:08;25.50;59.90
16074;DHT22;8141;52.664;5.074;2023-07-24T14:02:34;25.50;59.30
16074;DHT22;8141;52.664;5.074;2023-07-24T14:05:00;25.50;59.10
16074;DHT22;8141;52.664;5.074;2023-07-24T14:07:25;25.50;59.00
16074;DHT22;8141;52.664;5.074;2023-07-24T14:09:51;25.50;59.20
16074;DHT22;8141;52.664;5.074;2023-07-24T14:12:17;25.50;59.10
16074;DHT22;8141;52.664;5.074;2023-07-24T14:14:42;25.60;59.10
16074;DHT22;8141;52.664;5.074;2023-07-24T14:17:08;25.60;59.00
16074;DHT22;8141;52.664;5.074;2023-07-24T14:19:34;25.60;59.00
16074;DHT22;8141;52.664;5.074;2023-07-24T14:21:59;25.60;59.00
16074;DHT22;8141;52.664;5.074;2023-07-24T14:24:27;25.60;59.10
16074;DHT22;8141;52.664;5.074;2023-07-24T14:26:52;25.60;59.00
16074;DHT22;8141;52.664;5.074;2023-07-24T14:29:18;25.60;59.00
16074;DHT22;8141;52.664;5.074;2023-07-24T14:31:44;25.60;58.90
16074;DHT22;8141;52.664;5.074;2023-07-24T14:34:10;25.60;59.00
16074;DHT22;8141;52.664;5.074;2023-07-24T14:36:38;25.60;59.00
16074;DHT22;8141;52.664;5.074;2023-07-24T14:39:05;25.60;59.00
16074;DHT22;8141;52.664;5.074;2023-07-24T14:41:31;25.60;58.90
16074;DHT22;8141;52.664;5.074;2023-07-24T14:43:57;25.60;58.90
16074;DHT22;8141;52.664;5.074;2023-07-24T14:46:22;25.60;58.90
16074;DHT22;8141;52.664;5.074;2023-07-24T14:48:49;25.60;58.90
16074;DHT22;8141;52.664;5.074;2023-07-24T14:51:14;25.60;58.90
16074;DHT22;8141;52.664;5.074;2023-07-24T14:53:40;25.60;58.90
16074;DHT22;8141;52.664;5.074;2023-07-24T14:56:06;25.60;59.00
16074;DHT22;8141;52.664;5.074;2023-07-24T14:58:32;25.60;58.90
16074;DHT22;8141;52.664;5.074;2023-07-24T15:00:57;25.50;59.00
16074;DHT22;8141;52.664;5.074;2023-07-24T15:03:23;25.50;59.00
16074;DHT22;8141;52.664;5.074;2023-07-24T15:05:49;25.50;58.80
16074;DHT22;8141;52.664;5.074;2023-07-24T15:08:15;25.50;59.00
16074;DHT22;8141;52.664;5.074;2023-07-24T15:10:41;25.50;58.80
16074;DHT22;8141;52.664;5.074;2023-07-24T15:13:09;25.50;58.80
16074;DHT22;8141;52.664;5.074;2023-07-24T15:15:35;25.50;59.20
16074;DHT22;8141;52.664;5.074;2023-07-24T15:18:01;25.50;59.30
16074;DHT22;8141;52.664;5.074;2023-07-24T15:20:27;25.50;59.60
16074;DHT22;8141;52.664;5.074;2023-07-24T15:22:53;25.50;59.60
16074;DHT22;8141;52.664;5.074;2023-07-24T15:25:19;25.40;59.40
16074;DHT22;8141;52.664;5.074;2023-07-24T15:27:45;25.50;59.70
16074;DHT22;8141;52.664;5.074;2023-07-24T15:30:11;25.50;59.80
16074;DHT22;8141;52.664;5.074;2023-07-24T15:32:37;25.50;59.80
16074;DHT22;8141;52.664;5.074;2023-07-24T15:35:04;25.50;59.90
16074;DHT22;8141;52.664;5.074;2023-07-24T15:37:30;25.50;59.80
16074;DHT22;8141;52.664;5.074;2023-07-24T15:39:59;25.40;60.00
16074;DHT22;8141;52.664;5.074;2023-07-24T15:42:25;25.40;60.00
16074;DHT22;8141;52.664;5.074;2023-07-24T15:44:51;25.40;60.00
16074;DHT22;8141;52.664;5.074;2023-07-24T15:47:17;25.40;60.20
16074;DHT22;8141;52.664;5.074;2023-07-24T15:49:43;25.40;60.10
16074;DHT22;8141;52.664;5.074;2023-07-24T15:52:09;25.40;60.00